• Join FlightAware (Why Join?)
  • Login
  • US Flag 
10:50PM EDT


 

Airport Tracker/Info


-or-


 

Live Flight TrackerFlight Track Log ✈ UPS1337 ✈ 22-Mar-2014 ✈ KRDU - KSDF

Flight Track Log - Related Links

Times and Time Zones

All times are in EDT time to prevent confusion due to time zone crossing. See the UPS1337 flight status page for this flight to view local times or setup timezone preferences in your user account.

Time Position Orientation Groundspeed Altitude Reporting Facility
EDT Latitude Longitude Course Direction KTS MPH feet Rate Location/Type
11:59PM 35.8376 -79.2327 264° West  Level FlightAware Approximate
12:00AM 35.8308 -79.3231 262° West  Level FlightAware Approximate
12:01AM 35.8208 -79.4132 262° West  Level FlightAware Approximate
12:02AM 35.8167 -79.5037 270° West  Level FlightAware Approximate
12:03AM 35.8020 -79.5919 253° West  Level FlightAware Approximate
12:04AM 35.7840 -79.6800 256° West  Level FlightAware Approximate
12:05AM 35.7665 -79.7682 262° West  Level FlightAware Approximate
12:06AM 35.7565 -79.8582 262° West  Level FlightAware Approximate
12:07AM 35.7424 -79.9471 253° West  Level FlightAware Approximate
12:08AM 35.7207 -80.0339 253° West  Level FlightAware Approximate
12:09AM 35.7116 -80.1231 255° West  Level FlightAware Approximate
12:10AM 35.6921 -80.2106 255° West  Level FlightAware Approximate
12:11AM 35.6714 -80.2977 253° West  Level FlightAware Approximate
12:12AM 35.6529 -80.3855 256° West  Level FlightAware Approximate
12:13AM 35.6539 -80.4744 302° West  Level FlightAware Approximate
12:14AM 35.6925 -80.5517 302° West  Level FlightAware Approximate
12:15AM 35.7263 -80.6323 296° West  Level FlightAware Approximate
12:16AM 35.7627 -80.7112 301° West  Level FlightAware Approximate
12:17AM 35.8002 -80.7894 301° West  Level FlightAware Approximate
12:18AM 35.8377 -80.8677 301° West  Level FlightAware Approximate
12:19AM 35.8751 -80.9460 301° West  Level FlightAware Approximate
12:20AM 35.9125 -81.0245 300° West  Level FlightAware Approximate
12:21AM 35.9502 -81.1027 301° West  Level FlightAware Approximate
12:22AM 35.9880 -81.1809 301° West  Level FlightAware Approximate
12:23AM 36.0257 -81.2591 301° West  Level FlightAware Approximate
12:24AM 36.0634 -81.3375 301° West  Level FlightAware Approximate
12:25AM 36.1010 -81.4159 301° West  Level FlightAware Approximate
12:26AM 36.1386 -81.4944 301° West  Level FlightAware Approximate
12:27AM 36.1761 -81.5730 301° West  Level FlightAware Approximate
12:28AM 36.2136 -81.6516 301° West  Level FlightAware Approximate
12:29AM 36.2510 -81.7304 301° West  Level FlightAware Approximate
12:30AM 36.2884 -81.8092 300° West  Level FlightAware Approximate
12:31AM 36.3257 -81.8881 300° West  Level FlightAware Approximate
12:32AM 36.3629 -81.9670 300° West  Level FlightAware Approximate
12:33AM 36.4002 -82.0461 300° West  Level FlightAware Approximate
12:34AM 36.4362 -82.1258 291° West  Level FlightAware Approximate
12:35AM 36.4628 -82.2113 291° West  Level FlightAware Approximate
12:36AM 36.4894 -82.2968 291° West  Level FlightAware Approximate
12:37AM 36.5159 -82.3824 291° West  Level FlightAware Approximate
12:38AM 36.5423 -82.4680 291° West  Level FlightAware Approximate
12:39AM 36.5687 -82.5537 291° West  Level FlightAware Approximate
12:40AM 36.5950 -82.6394 291° West  Level FlightAware Approximate
12:41AM 36.6212 -82.7252 291° West  Level FlightAware Approximate
12:41AM 37.5836 -84.7469 293° West 309 356 12,900  Level FlightAware ADS-B (KBRY)
12:42AM 37.6240 -84.8645 294° West 292 336 11,700 -1,080 Descending FlightAware ADS-B (KBRY)
12:43AM 37.6278 -84.8754 293° West 295 339 11,000 -840 Descending FlightAware ADS-B (KBRY)
12:44AM 37.7212 -85.0466 313° West 341 392 10,000 -480 Descending FlightAware ADS-B (KBRY)
12:45AM 37.7791 -85.1250 313° West 267 307 10,000 -660 Level FlightAware ADS-B (KBRY)
12:46AM 37.8281 -85.1930 312° West 252 290 8,700 -1,200 Descending FlightAware ADS-B (KBRY)
12:47AM 37.8737 -85.2564 312° West 226 260 7,700 -960 Descending FlightAware ADS-B (KBRY)
12:48AM 37.9146 -85.3132 312° West 223 257 6,800 -840 Descending FlightAware ADS-B (KBRY)
12:49AM 37.9563 -85.3707 312° West 217 250 6,100 -360 Descending FlightAware ADS-B (KBRY)
12:50AM 37.9965 -85.4275 312° West 217 250 6,100  Level FlightAware ADS-B (KBRY)
12:51AM 38.0368 -85.4841 312° West 218 251 6,100 -60 Level FlightAware ADS-B (KBRY)
12:52AM 38.0767 -85.5401 312° West 219 252 6,000  Descending FlightAware ADS-B (KBRY)
12:53AM 38.1236 -85.5878 339° North 236 272 6,100 -480 Climbing FlightAware ADS-B (KBRY)
12:54AM 38.1866 -85.6188 338° Northwest 242 278 5,100 -1,020 Descending FlightAware ADS-B (KBRY)
12:55AM 38.2504 -85.6427 346° North 251 289 4,100 -600 Descending FlightAware ADS-B (KBRY)
12:56AM 38.3043 -85.6608 344° North 249 287 4,100  Level FlightAware ADS-B (KBRY)
12:57AM 38.3814 -85.6882 346° North 212 244 4,100  Level FlightAware ADS-B (KBRY)
12:58AM 38.4019 -85.6945 259° West 154 177 4,100  Level FlightAware ADS-B (KBRY)
12:58AM 38.4122 -85.7396 258° West 152 175 4,100  Level FlightAware ADS-B (KBRY)
01:01AM 38.2561 -85.7376 179° South  Level Estimated
01:02AM 38.1824 -85.7366 208° Southwest  Level Estimated
01:03AM 38.1741 -85.7365 208° Southwest  Level Estimated
01:04AM 38.1741 -85.7365 208° Southwest  Level Estimated
01:05AM 38.1741 -85.7365 208° Southwest  Level Estimated
01:06AM 38.1741 -85.7365 208° Southwest  Level Estimated
01:07AM 38.1741 -85.7365 208° Southwest  Level Estimated
01:08AM 38.1741 -85.7365 208° Southwest  Level Estimated
01:09AM 38.1741 -85.7365 208° Southwest  Level Estimated
01:10AM 38.1741 -85.7365 208° Southwest  Level Estimated
01:11AM 38.1741 -85.7365 208° Southwest  Level Estimated
01:12AM 38.1741 -85.7365 208° Southwest  Level Estimated
01:13AM 38.1741 -85.7365 208° Southwest  Level Estimated
01:14AM 38.1741 -85.7365 208° Southwest  Level Estimated
01:15AM 38.1741 -85.7365 208° Southwest  Level Estimated
01:16AM 38.1741 -85.7365 208° Southwest  Level Estimated
01:17AM 38.1741 -85.7365 208° Southwest  Level Estimated
01:18AM 38.1741 -85.7365 208° Southwest  Level Estimated
01:19AM 38.1741 -85.7365 208° Southwest  Level Estimated
01:20AM 38.1741 -85.7365 208° Southwest  Level Estimated
01:21AM 38.1741 -85.7365 208° Southwest  Level Estimated
01:22AM 38.1741 -85.7365 208° Southwest  Level Estimated
01:23AM 38.1741 -85.7365 208° Southwest  Level Estimated
01:24AM 38.1741 -85.7365 208° Southwest  Level Estimated
01:25AM 38.1741 -85.7365 208° Southwest  Level Estimated
01:26AM 38.1741 -85.7365 208° Southwest  Level Estimated
01:27AM 38.1741 -85.7365 208° Southwest  Level Estimated
01:28AM 38.1741 -85.7365 208° Southwest  Level Estimated
01:29AM 38.1741 -85.7365 208° Southwest  Level Estimated
01:30AM 38.1741 -85.7365 208° Southwest  Level Estimated
01:31AM 38.1741 -85.7365 208° Southwest  Level Estimated
01:32AM 38.1741 -85.7365 208° Southwest  Level Estimated
01:33AM 38.1741 -85.7365 208° Southwest  Level Estimated
01:34AM 38.1741 -85.7365 208° Southwest  Level Estimated
01:35AM 38.1741 -85.7365 208° Southwest  Level Estimated
01:36AM 38.1741 -85.7365 208° Southwest  Level Estimated
01:37AM 38.1741 -85.7365 208° Southwest  Level Estimated
01:38AM 38.1741 -85.7365 208° Southwest  Level Estimated
01:39AM 38.1741 -85.7365 208° Southwest  Level Estimated
01:40AM 38.1741 -85.7365 208° Southwest  Level Estimated
01:41AM 38.1741 -85.7365 208° Southwest  Level Estimated
01:42AM 38.1741 -85.7365 208° Southwest  Level Estimated